Austin, TX (78772)

8:44 AM CDT on September 03, 2015 (GMT -0500)
Dawson - Gumbo Gulch | | Change Station
CLOSE
Current Station
Personal Weather Station
Location: Austin, TX
Elevation: 614 ft
Nearby Weather Stations

Elev 614 ft 30.23 °N, 97.76 °W | Updated 42 seconds ago

Mostly Cloudy
Mostly Cloudy
76.0 °F
Feels Like 76 °F
N
0.0
Wind Variable Wind from North
Gusts 1.0 mph

Today
High -- | Low -- °F
--% Chance of Precip.
Yesterday
High -- | Low -- °F
Precip. -- in
7:08 AM 7:51 PM
Waning Gibbous, 70% visible
Pressure 29.96 in
Visibility 10.0 miles
Clouds Scattered Clouds 900 ft
Scattered Clouds 2600 ft
Mostly Cloudy 25000 ft
Heat Index 76 °F
Dew Point 72 °F
Humidity 88%
Rainfall 0.00 in
Snow Depth Not available.
UV 0 out of 12
Pollen 7.20 out of 12
Air Quality Not available.
Flu Activity Not available.
SPECI KAUS 031256Z 00000KT 10SM SCT009 SCT026 BKN250 22/21 A2996 RMK AO2 T02220206
Pressure 29.96 in
Visibility 10.0 miles
Clouds Scattered Clouds 900 ft
Scattered Clouds 2600 ft
Mostly Cloudy 25000 ft
Heat Index 76 °F
Dew Point 72 °F
Humidity 88%
Rainfall 0.00 in
Snow Depth Not available.
UV 0 out of 12
Pollen 7.20 out of 12
Air Quality Not available.
Flu Activity Not available.
SPECI KAUS 031256Z 00000KT 10SM SCT009 SCT026 BKN250 22/21 A2996 RMK AO2 T02220206

10-Day Weather Forecast

×

Almanac

Astronomy

Sep. 03, 2015 Rise Set
Actual Time
Civil Twilight
Nautical Twilight
Astronomical Twilight
Moon
Length of Visible Light
Length of Day
Tomorrow will be .
, % of the Moon is Illuminated

Today's Extremes

State Highs State Lows

Community

WunderPhotos

Upload Photos

1,851,952 photos uploaded!

WunderBlogs® & News

Nearby

Air Quality

  Air Quality AQ Index Pollutant
Not available.

Snow Depth

Station Depth Elevation

Earthquake Activity

City Distance Mag. Time & Date
Minimum magnitude displayed is 2.5.

Coastal Water Temperatures

Place Temperature

Stations

Nearby Weather Stations

Station Location Temp. Windchill Dew Point Humidity Wind Precip. Elev Updated Type